Sea Success — VRS4325 — position and weather

sailwx.info

Track history (hours):
 
Tides and Currents Weather Stations Pressure Air Temp Water Temp Dewpoint Dewpoint Depression Visibility Wind Speed Wind Dir Waves Ship Positions

Sea Success

Last reported at 2015-Apr-21 13:32 UTC. Time now 2015-Apr-21 21:07 UTC.
Position N 22°17' E 114°04'.

Length 27 m.

Type: High speed craft. MMSI: 477995071.

Date/timePositionNaut miles runAvg speedWind from/ knotsBaromVisibWave heightAir tempDewpointWater temp
2015-Apr-21 13:32N 22°17' E 114°04'3 2.0
2015-Apr-21 12:06N 22°16' E 114°02'813.9
2015-Apr-21 11:33N 22°17' E 114°10'7 7.1
2015-Apr-21 10:33N 22°16' E 114°02'7 6.7
2015-Apr-21 09:33N 22°18' E 114°09'1 0.5
2015-Apr-21 08:33N 22°18' E 114°09'7 3.4
2015-Apr-21 06:20N 22°16' E 114°02'8 9.8
2015-Apr-21 05:33N 22°17' E 114°10'7 2.8
2015-Apr-21 03:07N 22°17' E 114°02'712.1
2015-Apr-21 02:33N 22°17' E 114°10'5 3.5
2015-Apr-21 01:12N 22°17' E 114°05'2 2.0
2015-Apr-21 00:08N 22°17' E 114°02'712.0
2015-Apr-20 23:33N 22°17' E 114°10'5 4.3
2015-Apr-20 22:27N 22°17' E 114°04'0 0.0
2015-Apr-20 13:33N 22°17' E 114°04'3 1.8
2015-Apr-20 12:05N 22°16' E 114°02'814.3
2015-Apr-20 11:34N 22°17' E 114°10'7 6.7
2015-Apr-20 10:32N 22°17' E 114°02'7 6.8
2015-Apr-20 09:33N 22°18' E 114°09'1 0.7
2015-Apr-20 08:33N 22°18' E 114°09'8 3.4
2015-Apr-20 06:19N 22°16' E 114°02'8 9.9
2015-Apr-20 05:33N 22°17' E 114°10'8 3.4
2015-Apr-20 03:19N 22°16' E 114°02'8 9.9
2015-Apr-20 02:33N 22°17' E 114°10'4 2.1
2015-Apr-20 00:32N 22°17' E 114°05'4 4.2
2015-Apr-19 23:33N 22°17' E 114°10'1 0.5
2015-Apr-19 22:33N 22°18' E 114°09'1 0.1
2015-Apr-19 13:34N 22°18' E 114°09'2 1.7
2015-Apr-19 12:34N 22°17' E 114°07'5 3.9
2015-Apr-19 11:17N 22°16' E 114°02'810.5
2015-Apr-19 10:33N 22°17' E 114°10'7 7.0
2015-Apr-19 09:33N 22°17' E 114°02'7 6.9
2015-Apr-19 08:33N 22°17' E 114°09'0 0.0
2015-Apr-19 07:33N 22°17' E 114°09'0 0.0
2015-Apr-19 06:33N 22°17' E 114°09'0 0.0
2015-Apr-19 05:33N 22°17' E 114°09'5 3.8
2015-Apr-19 04:19N 22°17' E 114°04'3 4.2
2015-Apr-19 03:33N 22°17' E 114°08'0 0.4
2015-Apr-19 02:34N 22°18' E 114°07'2 2.1
2015-Apr-19 01:33N 22°17' E 114°09'0 0.0
2015-Apr-19 00:33N 22°17' E 114°09'2 2.3
2015-Apr-18 23:33N 22°20' E 114°09'5 0.5
2015-Apr-18 13:33N 22°17' E 114°05'3 2.0
2015-Apr-18 12:13N 22°17' E 114°02'710.9
2015-Apr-18 11:33N 22°17' E 114°10'7 7.0
2015-Apr-18 10:33N 22°17' E 114°02'0 0.2
2015-Apr-18 09:09N 22°17' E 114°02'711.6
2015-Apr-18 08:33N 22°17' E 114°10'8 3.5
2015-Apr-18 06:23N 22°16' E 114°02'8 9.1
2015-Apr-18 05:33N 22°17' E 114°10'8 3.4
2015-Apr-18 03:21N 22°16' E 114°02'8 9.6
2015-Apr-18 02:33N 22°17' E 114°10'4 2.9
2015-Apr-18 01:12N 22°17' E 114°05'1 1.3
2015-Apr-18 00:33N 22°17' E 114°05'5 4.7
2015-Apr-17 23:33N 22°17' E 114°10'6 5.8
2015-Apr-17 22:31N 22°17' E 114°03'2 0.2
2015-Apr-17 13:34N 22°17' E 114°05'3 2.6
2015-Apr-17 12:15N 22°16' E 114°02'710.9
2015-Apr-17 11:34N 22°17' E 114°10'7 6.0
2015-Apr-17 10:25N 22°17' E 114°02'7 8.2
2015-Apr-17 09:34N 22°17' E 114°10'0 0.5
2015-Apr-17 08:33N 22°18' E 114°09'7 3.3
2015-Apr-17 06:21N 22°16' E 114°02'7 9.3
2015-Apr-17 05:33N 22°17' E 114°10'0 0.0
2015-Apr-17 02:33N 22°17' E 114°10'8 6.5
2015-Apr-17 01:24N 22°16' E 114°02'2 2.9
2015-Apr-17 00:33N 22°17' E 114°04'5 5.2
2015-Apr-16 23:34N 22°17' E 114°10'0 0.4
2015-Apr-16 22:33N 22°18' E 114°09'5 0.5
2015-Apr-16 13:32N 22°17' E 114°04'2 1.7
2015-Apr-16 12:18N 22°17' E 114°02'7 9.6
2015-Apr-16 11:33N 22°17' E 114°10'7 6.0
2015-Apr-16 10:25N 22°17' E 114°02'7 7.8
2015-Apr-16 09:33N 22°17' E 114°09'0 0.0
2015-Apr-16 08:33N 22°17' E 114°09'0 0.0
2015-Apr-16 07:33N 22°17' E 114°09'0 0.0
2015-Apr-16 06:33N 22°17' E 114°09'1 0.9
2015-Apr-16 05:33N 22°18' E 114°09'0 0.0
2015-Apr-15 02:30N 22°18' E 114°09'0 0.0
2015-Apr-14 08:08N 22°18' E 114°09'0 0.5
2015-Apr-14 07:34N 22°18' E 114°09'1 1.3
2015-Apr-14 06:33N 22°20' E 114°09'  
Track history (hours):
 
Tides and Currents Weather Stations Pressure Air Temp Water Temp Dewpoint Dewpoint Depression Visibility Wind Speed Wind Dir Waves Ship Positions

Sea Success

Last reported at 2015-Apr-21 13:32 UTC. Time now 2015-Apr-21 21:07 UTC.
Position N 22°17' E 114°04'.

Length 27 m.

Type: High speed craft. MMSI: 477995071.

Date/timePositionNaut miles runAvg speedWind from/ knotsBaromVisibWave heightAir tempDewpointWater temp
2015-Apr-21 13:32N 22°17' E 114°04'3 2.0
2015-Apr-21 12:06N 22°16' E 114°02'813.9
2015-Apr-21 11:33N 22°17' E 114°10'7 7.1
2015-Apr-21 10:33N 22°16' E 114°02'7 6.7
2015-Apr-21 09:33N 22°18' E 114°09'1 0.5
2015-Apr-21 08:33N 22°18' E 114°09'7 3.4
2015-Apr-21 06:20N 22°16' E 114°02'8 9.8
2015-Apr-21 05:33N 22°17' E 114°10'7 2.8
2015-Apr-21 03:07N 22°17' E 114°02'712.1
2015-Apr-21 02:33N 22°17' E 114°10'5 3.5
2015-Apr-21 01:12N 22°17' E 114°05'2 2.0
2015-Apr-21 00:08N 22°17' E 114°02'712.0
2015-Apr-20 23:33N 22°17' E 114°10'5 4.3
2015-Apr-20 22:27N 22°17' E 114°04'0 0.0
2015-Apr-20 13:33N 22°17' E 114°04'3 1.8
2015-Apr-20 12:05N 22°16' E 114°02'814.3
2015-Apr-20 11:34N 22°17' E 114°10'7 6.7
2015-Apr-20 10:32N 22°17' E 114°02'7 6.8
2015-Apr-20 09:33N 22°18' E 114°09'1 0.7
2015-Apr-20 08:33N 22°18' E 114°09'8 3.4
2015-Apr-20 06:19N 22°16' E 114°02'8 9.9
2015-Apr-20 05:33N 22°17' E 114°10'8 3.4
2015-Apr-20 03:19N 22°16' E 114°02'8 9.9
2015-Apr-20 02:33N 22°17' E 114°10'4 2.1
2015-Apr-20 00:32N 22°17' E 114°05'4 4.2
2015-Apr-19 23:33N 22°17' E 114°10'1 0.5
2015-Apr-19 22:33N 22°18' E 114°09'1 0.1
2015-Apr-19 13:34N 22°18' E 114°09'2 1.7
2015-Apr-19 12:34N 22°17' E 114°07'5 3.9
2015-Apr-19 11:17N 22°16' E 114°02'810.5
2015-Apr-19 10:33N 22°17' E 114°10'7 7.0
2015-Apr-19 09:33N 22°17' E 114°02'7 6.9
2015-Apr-19 08:33N 22°17' E 114°09'0 0.0
2015-Apr-19 07:33N 22°17' E 114°09'0 0.0
2015-Apr-19 06:33N 22°17' E 114°09'0 0.0
2015-Apr-19 05:33N 22°17' E 114°09'5 3.8
2015-Apr-19 04:19N 22°17' E 114°04'3 4.2
2015-Apr-19 03:33N 22°17' E 114°08'0 0.4
2015-Apr-19 02:34N 22°18' E 114°07'2 2.1
2015-Apr-19 01:33N 22°17' E 114°09'0 0.0
2015-Apr-19 00:33N 22°17' E 114°09'2 2.3
2015-Apr-18 23:33N 22°20' E 114°09'5 0.5
2015-Apr-18 13:33N 22°17' E 114°05'3 2.0
2015-Apr-18 12:13N 22°17' E 114°02'710.9
2015-Apr-18 11:33N 22°17' E 114°10'7 7.0
2015-Apr-18 10:33N 22°17' E 114°02'0 0.2
2015-Apr-18 09:09N 22°17' E 114°02'711.6
2015-Apr-18 08:33N 22°17' E 114°10'8 3.5
2015-Apr-18 06:23N 22°16' E 114°02'8 9.1
2015-Apr-18 05:33N 22°17' E 114°10'8 3.4
2015-Apr-18 03:21N 22°16' E 114°02'8 9.6
2015-Apr-18 02:33N 22°17' E 114°10'4 2.9
2015-Apr-18 01:12N 22°17' E 114°05'1 1.3
2015-Apr-18 00:33N 22°17' E 114°05'5 4.7
2015-Apr-17 23:33N 22°17' E 114°10'6 5.8
2015-Apr-17 22:31N 22°17' E 114°03'2 0.2
2015-Apr-17 13:34N 22°17' E 114°05'3 2.6
2015-Apr-17 12:15N 22°16' E 114°02'710.9
2015-Apr-17 11:34N 22°17' E 114°10'7 6.0
2015-Apr-17 10:25N 22°17' E 114°02'7 8.2
2015-Apr-17 09:34N 22°17' E 114°10'0 0.5
2015-Apr-17 08:33N 22°18' E 114°09'7 3.3
2015-Apr-17 06:21N 22°16' E 114°02'7 9.3
2015-Apr-17 05:33N 22°17' E 114°10'0 0.0
2015-Apr-17 02:33N 22°17' E 114°10'8 6.5
2015-Apr-17 01:24N 22°16' E 114°02'2 2.9
2015-Apr-17 00:33N 22°17' E 114°04'5 5.2
2015-Apr-16 23:34N 22°17' E 114°10'0 0.4
2015-Apr-16 22:33N 22°18' E 114°09'5 0.5
2015-Apr-16 13:32N 22°17' E 114°04'2 1.7
2015-Apr-16 12:18N 22°17' E 114°02'7 9.6
2015-Apr-16 11:33N 22°17' E 114°10'7 6.0
2015-Apr-16 10:25N 22°17' E 114°02'7 7.8
2015-Apr-16 09:33N 22°17' E 114°09'0 0.0
2015-Apr-16 08:33N 22°17' E 114°09'0 0.0
2015-Apr-16 07:33N 22°17' E 114°09'0 0.0
2015-Apr-16 06:33N 22°17' E 114°09'1 0.9
2015-Apr-16 05:33N 22°18' E 114°09'0 0.0
2015-Apr-15 02:30N 22°18' E 114°09'0 0.0
2015-Apr-14 08:08N 22°18' E 114°09'0 0.5
2015-Apr-14 07:34N 22°18' E 114°09'1 1.3
2015-Apr-14 06:33N 22°20' E 114°09'  

Dump ship's entire track history